sensor_id;sensor_type;location;lat;lon;timestamp;P1;durP1;ratioP1;P2;durP2;ratioP2
83541;SDS011;73485;49.194;12.104;2023-11-18T00:01:35;9.45;;;6.10;;
83541;SDS011;73485;49.194;12.104;2023-11-18T00:04:03;8.10;;;5.70;;
83541;SDS011;73485;49.194;12.104;2023-11-18T00:06:33;9.10;;;4.90;;
83541;SDS011;73485;49.194;12.104;2023-11-18T00:09:01;12.60;;;8.27;;
83541;SDS011;73485;49.194;12.104;2023-11-18T00:11:28;12.45;;;7.30;;
83541;SDS011;73485;49.194;12.104;2023-11-18T00:13:56;10.25;;;7.47;;
83541;SDS011;73485;49.194;12.104;2023-11-18T00:16:24;11.80;;;7.40;;
83541;SDS011;73485;49.194;12.104;2023-11-18T00:18:53;11.05;;;6.32;;
83541;SDS011;73485;49.194;12.104;2023-11-18T00:21:20;9.43;;;6.20;;
83541;SDS011;73485;49.194;12.104;2023-11-18T00:23:49;12.13;;;5.65;;
83541;SDS011;73485;49.194;12.104;2023-11-18T00:26:17;10.32;;;6.18;;
83541;SDS011;73485;49.194;12.104;2023-11-18T00:28:45;10.45;;;6.35;;
83541;SDS011;73485;49.194;12.104;2023-11-18T00:31:14;11.35;;;5.53;;
83541;SDS011;73485;49.194;12.104;2023-11-18T00:33:41;6.85;;;5.28;;
83541;SDS011;73485;49.194;12.104;2023-11-18T00:36:09;9.27;;;5.10;;
83541;SDS011;73485;49.194;12.104;2023-11-18T00:38:37;11.50;;;5.28;;
83541;SDS011;73485;49.194;12.104;2023-11-18T00:41:07;9.65;;;5.43;;
83541;SDS011;73485;49.194;12.104;2023-11-18T00:43:34;8.50;;;5.07;;
83541;SDS011;73485;49.194;12.104;2023-11-18T00:46:02;8.95;;;5.65;;
83541;SDS011;73485;49.194;12.104;2023-11-18T00:48:31;10.30;;;6.13;;
83541;SDS011;73485;49.194;12.104;2023-11-18T00:50:58;21.90;;;5.55;;
83541;SDS011;73485;49.194;12.104;2023-11-18T00:53:26;12.43;;;7.38;;
83541;SDS011;73485;49.194;12.104;2023-11-18T00:55:54;7.03;;;4.57;;
83541;SDS011;73485;49.194;12.104;2023-11-18T00:58:23;8.05;;;5.05;;
83541;SDS011;73485;49.194;12.104;2023-11-18T01:00:50;9.25;;;5.53;;
83541;SDS011;73485;49.194;12.104;2023-11-18T01:03:18;8.05;;;5.32;;
83541;SDS011;73485;49.194;12.104;2023-11-18T01:05:46;6.15;;;4.13;;
83541;SDS011;73485;49.194;12.104;2023-11-18T01:08:13;8.10;;;6.00;;
83541;SDS011;73485;49.194;12.104;2023-11-18T01:10:41;11.10;;;5.70;;
83541;SDS011;73485;49.194;12.104;2023-11-18T01:13:09;8.13;;;5.50;;
83541;SDS011;73485;49.194;12.104;2023-11-18T01:15:38;9.80;;;5.93;;
83541;SDS011;73485;49.194;12.104;2023-11-18T01:18:05;7.38;;;5.25;;
83541;SDS011;73485;49.194;12.104;2023-11-18T01:20:33;9.68;;;4.78;;
83541;SDS011;73485;49.194;12.104;2023-11-18T01:23:01;12.13;;;5.63;;
83541;SDS011;73485;49.194;12.104;2023-11-18T01:25:29;8.55;;;5.65;;
83541;SDS011;73485;49.194;12.104;2023-11-18T01:27:56;11.02;;;6.28;;
83541;SDS011;73485;49.194;12.104;2023-11-18T01:30:24;17.63;;;8.73;;
83541;SDS011;73485;49.194;12.104;2023-11-18T01:32:54;11.13;;;7.07;;
83541;SDS011;73485;49.194;12.104;2023-11-18T01:37:52;10.32;;;7.07;;
83541;SDS011;73485;49.194;12.104;2023-11-18T01:40:21;9.48;;;5.75;;
83541;SDS011;73485;49.194;12.104;2023-11-18T01:42:48;10.63;;;6.07;;
83541;SDS011;73485;49.194;12.104;2023-11-18T01:45:16;8.35;;;5.00;;
83541;SDS011;73485;49.194;12.104;2023-11-18T01:47:44;7.75;;;5.10;;
83541;SDS011;73485;49.194;12.104;2023-11-18T01:50:13;7.55;;;4.65;;
83541;SDS011;73485;49.194;12.104;2023-11-18T01:52:42;8.52;;;5.95;;
83541;SDS011;73485;49.194;12.104;2023-11-18T01:55:12;8.43;;;5.63;;
83541;SDS011;73485;49.194;12.104;2023-11-18T01:57:40;9.13;;;5.90;;
83541;SDS011;73485;49.194;12.104;2023-11-18T02:00:10;9.90;;;5.03;;
83541;SDS011;73485;49.194;12.104;2023-11-18T02:02:39;7.43;;;4.80;;
83541;SDS011;73485;49.194;12.104;2023-11-18T02:05:07;6.78;;;4.80;;
83541;SDS011;73485;49.194;12.104;2023-11-18T02:07:36;5.53;;;4.47;;
83541;SDS011;73485;49.194;12.104;2023-11-18T02:10:05;7.10;;;4.68;;
83541;SDS011;73485;49.194;12.104;2023-11-18T02:12:37;5.40;;;4.40;;
83541;SDS011;73485;49.194;12.104;2023-11-18T02:15:07;8.15;;;4.80;;
83541;SDS011;73485;49.194;12.104;2023-11-18T02:17:39;6.53;;;4.55;;
83541;SDS011;73485;49.194;12.104;2023-11-18T02:20:09;8.93;;;4.68;;
83541;SDS011;73485;49.194;12.104;2023-11-18T02:22:44;6.75;;;4.55;;
83541;SDS011;73485;49.194;12.104;2023-11-18T02:27:42;5.20;;;3.10;;
83541;SDS011;73485;49.194;12.104;2023-11-18T02:30:10;4.18;;;2.97;;
83541;SDS011;73485;49.194;12.104;2023-11-18T02:32:42;5.55;;;3.33;;
83541;SDS011;73485;49.194;12.104;2023-11-18T02:35:15;8.32;;;4.40;;
83541;SDS011;73485;49.194;12.104;2023-11-18T02:37:46;6.90;;;4.18;;
83541;SDS011;73485;49.194;12.104;2023-11-18T02:40:15;6.68;;;4.25;;
83541;SDS011;73485;49.194;12.104;2023-11-18T02:42:47;5.15;;;4.03;;
83541;SDS011;73485;49.194;12.104;2023-11-18T02:45:15;5.85;;;3.28;;
83541;SDS011;73485;49.194;12.104;2023-11-18T02:47:44;5.90;;;4.55;;
83541;SDS011;73485;49.194;12.104;2023-11-18T02:50:12;7.82;;;4.38;;
83541;SDS011;73485;49.194;12.104;2023-11-18T02:52:40;7.68;;;4.13;;
83541;SDS011;73485;49.194;12.104;2023-11-18T02:55:08;10.00;;;4.05;;
83541;SDS011;73485;49.194;12.104;2023-11-18T02:57:37;7.65;;;4.30;;
83541;SDS011;73485;49.194;12.104;2023-11-18T03:00:07;5.40;;;4.40;;
83541;SDS011;73485;49.194;12.104;2023-11-18T03:02:38;8.57;;;4.45;;
83541;SDS011;73485;49.194;12.104;2023-11-18T03:05:06;4.90;;;4.35;;
83541;SDS011;73485;49.194;12.104;2023-11-18T03:07:38;5.57;;;3.35;;
83541;SDS011;73485;49.194;12.104;2023-11-18T03:10:06;5.22;;;3.17;;
83541;SDS011;73485;49.194;12.104;2023-11-18T03:12:37;6.30;;;4.55;;
83541;SDS011;73485;49.194;12.104;2023-11-18T03:15:07;7.18;;;4.18;;
83541;SDS011;73485;49.194;12.104;2023-11-18T03:17:35;4.15;;;2.85;;
83541;SDS011;73485;49.194;12.104;2023-11-18T03:20:05;9.23;;;3.47;;
83541;SDS011;73485;49.194;12.104;2023-11-18T03:25:02;8.23;;;3.50;;
83541;SDS011;73485;49.194;12.104;2023-11-18T03:27:31;11.10;;;3.38;;
83541;SDS011;73485;49.194;12.104;2023-11-18T03:29:59;4.90;;;3.40;;
83541;SDS011;73485;49.194;12.104;2023-11-18T03:32:28;9.18;;;4.10;;
83541;SDS011;73485;49.194;12.104;2023-11-18T03:34:55;7.60;;;3.08;;
83541;SDS011;73485;49.194;12.104;2023-11-18T03:37:25;7.10;;;3.20;;
83541;SDS011;73485;49.194;12.104;2023-11-18T03:39:53;6.35;;;3.53;;
83541;SDS011;73485;49.194;12.104;2023-11-18T03:42:21;5.50;;;3.90;;
83541;SDS011;73485;49.194;12.104;2023-11-18T03:44:48;5.80;;;3.33;;
83541;SDS011;73485;49.194;12.104;2023-11-18T03:47:16;5.95;;;3.33;;
83541;SDS011;73485;49.194;12.104;2023-11-18T03:49:45;7.07;;;4.47;;
83541;SDS011;73485;49.194;12.104;2023-11-18T03:52:12;7.93;;;3.30;;
83541;SDS011;73485;49.194;12.104;2023-11-18T03:54:40;4.78;;;3.67;;
83541;SDS011;73485;49.194;12.104;2023-11-18T03:57:08;5.18;;;2.75;;
83541;SDS011;73485;49.194;12.104;2023-11-18T03:59:35;5.85;;;3.13;;
83541;SDS011;73485;49.194;12.104;2023-11-18T04:02:03;7.00;;;3.42;;
83541;SDS011;73485;49.194;12.104;2023-11-18T04:04:31;7.13;;;3.33;;
83541;SDS011;73485;49.194;12.104;2023-11-18T04:07:00;8.35;;;3.25;;
83541;SDS011;73485;49.194;12.104;2023-11-18T04:09:27;6.10;;;3.05;;
83541;SDS011;73485;49.194;12.104;2023-11-18T04:11:55;6.18;;;3.35;;
83541;SDS011;73485;49.194;12.104;2023-11-18T04:14:24;5.32;;;3.45;;
83541;SDS011;73485;49.194;12.104;2023-11-18T04:16:52;7.00;;;3.75;;
83541;SDS011;73485;49.194;12.104;2023-11-18T04:19:21;8.23;;;3.88;;
83541;SDS011;73485;49.194;12.104;2023-11-18T04:21:49;7.65;;;3.75;;
83541;SDS011;73485;49.194;12.104;2023-11-18T04:24:17;7.68;;;4.50;;
83541;SDS011;73485;49.194;12.104;2023-11-18T04:26:45;6.55;;;4.13;;
83541;SDS011;73485;49.194;12.104;2023-11-18T04:29:14;5.25;;;3.47;;
83541;SDS011;73485;49.194;12.104;2023-11-18T04:31:42;7.30;;;3.08;;
83541;SDS011;73485;49.194;12.104;2023-11-18T04:34:09;3.25;;;2.63;;
83541;SDS011;73485;49.194;12.104;2023-11-18T04:36:37;3.55;;;2.70;;
83541;SDS011;73485;49.194;12.104;2023-11-18T04:39:05;7.00;;;3.45;;
83541;SDS011;73485;49.194;12.104;2023-11-18T04:41:33;6.88;;;2.97;;
83541;SDS011;73485;49.194;12.104;2023-11-18T04:46:30;5.55;;;3.30;;
83541;SDS011;73485;49.194;12.104;2023-11-18T04:48:58;4.65;;;2.85;;
83541;SDS011;73485;49.194;12.104;2023-11-18T04:51:28;5.65;;;3.05;;
83541;SDS011;73485;49.194;12.104;2023-11-18T04:53:55;5.82;;;2.97;;
83541;SDS011;73485;49.194;12.104;2023-11-18T04:56:23;6.30;;;3.33;;
83541;SDS011;73485;49.194;12.104;2023-11-18T04:58:52;4.22;;;2.53;;
83541;SDS011;73485;49.194;12.104;2023-11-18T05:01:20;5.82;;;2.95;;
83541;SDS011;73485;49.194;12.104;2023-11-18T05:03:48;4.70;;;3.65;;
83541;SDS011;73485;49.194;12.104;2023-11-18T05:06:15;5.95;;;3.95;;
83541;SDS011;73485;49.194;12.104;2023-11-18T05:08:43;6.03;;;3.08;;
83541;SDS011;73485;49.194;12.104;2023-11-18T05:11:11;4.88;;;3.83;;
83541;SDS011;73485;49.194;12.104;2023-11-18T05:13:39;4.80;;;3.15;;
83541;SDS011;73485;49.194;12.104;2023-11-18T05:16:08;4.15;;;2.90;;
83541;SDS011;73485;49.194;12.104;2023-11-18T05:18:37;6.13;;;4.03;;
83541;SDS011;73485;49.194;12.104;2023-11-18T05:21:05;4.80;;;3.30;;
83541;SDS011;73485;49.194;12.104;2023-11-18T05:23:34;4.72;;;3.15;;
83541;SDS011;73485;49.194;12.104;2023-11-18T05:26:01;5.47;;;3.00;;
83541;SDS011;73485;49.194;12.104;2023-11-18T05:28:31;6.40;;;2.85;;
83541;SDS011;73485;49.194;12.104;2023-11-18T05:30:58;5.35;;;3.58;;
83541;SDS011;73485;49.194;12.104;2023-11-18T05:33:29;5.00;;;3.03;;
83541;SDS011;73485;49.194;12.104;2023-11-18T05:35:57;6.97;;;2.70;;
83541;SDS011;73485;49.194;12.104;2023-11-18T05:38:25;9.98;;;3.53;;
83541;SDS011;73485;49.194;12.104;2023-11-18T05:40:54;7.50;;;4.40;;
83541;SDS011;73485;49.194;12.104;2023-11-18T05:43:23;11.20;;;3.70;;
83541;SDS011;73485;49.194;12.104;2023-11-18T05:45:52;4.72;;;3.20;;
83541;SDS011;73485;49.194;12.104;2023-11-18T05:48:42;5.30;;;2.95;;
83541;SDS011;73485;49.194;12.104;2023-11-18T05:51:10;4.00;;;2.38;;
83541;SDS011;73485;49.194;12.104;2023-11-18T05:53:41;5.65;;;2.42;;
83541;SDS011;73485;49.194;12.104;2023-11-18T05:56:11;9.18;;;4.20;;
83541;SDS011;73485;49.194;12.104;2023-11-18T05:58:39;5.50;;;2.75;;
83541;SDS011;73485;49.194;12.104;2023-11-18T06:01:07;7.13;;;3.63;;
83541;SDS011;73485;49.194;12.104;2023-11-18T06:03:35;5.72;;;3.00;;
83541;SDS011;73485;49.194;12.104;2023-11-18T06:06:07;5.72;;;3.20;;
83541;SDS011;73485;49.194;12.104;2023-11-18T06:08:35;5.28;;;2.47;;
83541;SDS011;73485;49.194;12.104;2023-11-18T06:11:07;4.32;;;2.53;;
83541;SDS011;73485;49.194;12.104;2023-11-18T06:13:40;4.95;;;2.90;;
83541;SDS011;73485;49.194;12.104;2023-11-18T06:16:13;6.93;;;2.80;;
83541;SDS011;73485;49.194;12.104;2023-11-18T06:18:42;4.20;;;2.22;;
83541;SDS011;73485;49.194;12.104;2023-11-18T06:21:13;5.18;;;3.10;;
83541;SDS011;73485;49.194;12.104;2023-11-18T06:23:42;4.03;;;3.08;;
83541;SDS011;73485;49.194;12.104;2023-11-18T06:26:11;4.75;;;3.05;;
83541;SDS011;73485;49.194;12.104;2023-11-18T06:28:39;4.55;;;2.15;;
83541;SDS011;73485;49.194;12.104;2023-11-18T06:31:07;5.68;;;2.72;;
83541;SDS011;73485;49.194;12.104;2023-11-18T06:33:36;5.72;;;3.00;;
83541;SDS011;73485;49.194;12.104;2023-11-18T06:36:07;3.30;;;2.20;;
83541;SDS011;73485;49.194;12.104;2023-11-18T06:38:37;3.45;;;2.30;;
83541;SDS011;73485;49.194;12.104;2023-11-18T06:41:05;6.45;;;4.30;;
83541;SDS011;73485;49.194;12.104;2023-11-18T06:43:35;7.45;;;6.07;;
83541;SDS011;73485;49.194;12.104;2023-11-18T06:46:18;8.10;;;4.35;;
83541;SDS011;73485;49.194;12.104;2023-11-18T06:48:48;10.32;;;4.50;;
83541;SDS011;73485;49.194;12.104;2023-11-18T06:51:16;9.10;;;4.78;;
83541;SDS011;73485;49.194;12.104;2023-11-18T06:53:45;6.75;;;4.15;;
83541;SDS011;73485;49.194;12.104;2023-11-18T06:56:12;6.07;;;3.90;;
83541;SDS011;73485;49.194;12.104;2023-11-18T06:58:42;3.75;;;2.50;;
83541;SDS011;73485;49.194;12.104;2023-11-18T07:01:12;4.53;;;2.75;;
83541;SDS011;73485;49.194;12.104;2023-11-18T07:03:41;3.47;;;2.30;;
83541;SDS011;73485;49.194;12.104;2023-11-18T07:06:09;4.88;;;3.28;;
83541;SDS011;73485;49.194;12.104;2023-11-18T07:08:36;4.72;;;3.35;;
83541;SDS011;73485;49.194;12.104;2023-11-18T07:11:06;5.25;;;2.65;;
83541;SDS011;73485;49.194;12.104;2023-11-18T07:13:34;6.72;;;3.15;;
83541;SDS011;73485;49.194;12.104;2023-11-18T07:16:02;5.55;;;3.00;;
83541;SDS011;73485;49.194;12.104;2023-11-18T07:18:31;6.63;;;3.50;;
83541;SDS011;73485;49.194;12.104;2023-11-18T07:21:01;11.82;;;4.78;;
83541;SDS011;73485;49.194;12.104;2023-11-18T07:23:30;8.23;;;4.40;;
83541;SDS011;73485;49.194;12.104;2023-11-18T07:25:58;8.65;;;5.00;;
83541;SDS011;73485;49.194;12.104;2023-11-18T07:28:28;5.40;;;3.58;;
83541;SDS011;73485;49.194;12.104;2023-11-18T07:30:55;6.68;;;3.45;;
83541;SDS011;73485;49.194;12.104;2023-11-18T07:33:24;8.30;;;4.40;;
83541;SDS011;73485;49.194;12.104;2023-11-18T07:35:53;9.43;;;5.38;;
83541;SDS011;73485;49.194;12.104;2023-11-18T07:38:21;10.45;;;5.47;;
83541;SDS011;73485;49.194;12.104;2023-11-18T07:40:49;10.63;;;6.03;;
83541;SDS011;73485;49.194;12.104;2023-11-18T07:43:23;13.15;;;7.00;;
83541;SDS011;73485;49.194;12.104;2023-11-18T07:45:52;13.32;;;5.68;;
83541;SDS011;73485;49.194;12.104;2023-11-18T07:48:19;10.77;;;5.75;;
83541;SDS011;73485;49.194;12.104;2023-11-18T07:50:47;10.35;;;5.97;;
83541;SDS011;73485;49.194;12.104;2023-11-18T07:53:15;11.73;;;5.75;;
83541;SDS011;73485;49.194;12.104;2023-11-18T07:55:43;10.70;;;5.32;;
83541;SDS011;73485;49.194;12.104;2023-11-18T07:58:11;8.25;;;4.85;;
83541;SDS011;73485;49.194;12.104;2023-11-18T08:00:39;12.00;;;5.20;;
83541;SDS011;73485;49.194;12.104;2023-11-18T08:03:08;10.60;;;6.05;;
83541;SDS011;73485;49.194;12.104;2023-11-18T08:05:38;11.70;;;6.57;;
83541;SDS011;73485;49.194;12.104;2023-11-18T08:08:06;11.88;;;5.72;;
83541;SDS011;73485;49.194;12.104;2023-11-18T08:10:37;12.02;;;7.03;;
83541;SDS011;73485;49.194;12.104;2023-11-18T08:13:06;14.93;;;5.53;;
83541;SDS011;73485;49.194;12.104;2023-11-18T08:15:35;12.43;;;6.20;;
83541;SDS011;73485;49.194;12.104;2023-11-18T08:18:05;11.68;;;6.50;;
83541;SDS011;73485;49.194;12.104;2023-11-18T08:20:35;10.60;;;5.47;;
83541;SDS011;73485;49.194;12.104;2023-11-18T08:23:02;11.43;;;6.55;;
83541;SDS011;73485;49.194;12.104;2023-11-18T08:25:31;15.70;;;7.05;;
83541;SDS011;73485;49.194;12.104;2023-11-18T08:28:00;17.02;;;7.65;;
83541;SDS011;73485;49.194;12.104;2023-11-18T08:30:27;10.90;;;7.18;;
83541;SDS011;73485;49.194;12.104;2023-11-18T08:32:55;12.90;;;7.15;;
83541;SDS011;73485;49.194;12.104;2023-11-18T08:35:25;18.05;;;8.02;;
83541;SDS011;73485;49.194;12.104;2023-11-18T08:37:55;14.13;;;7.32;;
83541;SDS011;73485;49.194;12.104;2023-11-18T08:40:23;11.70;;;7.18;;
83541;SDS011;73485;49.194;12.104;2023-11-18T08:42:52;12.50;;;6.72;;
83541;SDS011;73485;49.194;12.104;2023-11-18T08:45:23;10.38;;;5.95;;
83541;SDS011;73485;49.194;12.104;2023-11-18T08:47:54;9.07;;;5.82;;
83541;SDS011;73485;49.194;12.104;2023-11-18T08:50:24;12.65;;;5.82;;
83541;SDS011;73485;49.194;12.104;2023-11-18T08:52:55;10.27;;;4.65;;
83541;SDS011;73485;49.194;12.104;2023-11-18T08:55:26;9.00;;;4.30;;
83541;SDS011;73485;49.194;12.104;2023-11-18T08:58:06;7.15;;;4.38;;
83541;SDS011;73485;49.194;12.104;2023-11-18T09:00:46;7.35;;;4.60;;
83541;SDS011;73485;49.194;12.104;2023-11-18T09:03:16;6.40;;;4.18;;
83541;SDS011;73485;49.194;12.104;2023-11-18T09:05:44;7.95;;;4.55;;
83541;SDS011;73485;49.194;12.104;2023-11-18T09:08:27;7.97;;;4.25;;
83541;SDS011;73485;49.194;12.104;2023-11-18T09:10:58;8.00;;;4.45;;
83541;SDS011;73485;49.194;12.104;2023-11-18T09:13:26;13.82;;;4.72;;
83541;SDS011;73485;49.194;12.104;2023-11-18T09:15:56;13.63;;;6.10;;
83541;SDS011;73485;49.194;12.104;2023-11-18T09:18:26;11.07;;;5.57;;
83541;SDS011;73485;49.194;12.104;2023-11-18T09:20:54;22.40;;;6.50;;
83541;SDS011;73485;49.194;12.104;2023-11-18T09:23:25;12.20;;;5.32;;
83541;SDS011;73485;49.194;12.104;2023-11-18T09:25:54;9.82;;;5.32;;
83541;SDS011;73485;49.194;12.104;2023-11-18T09:28:23;9.27;;;6.32;;
83541;SDS011;73485;49.194;12.104;2023-11-18T09:30:51;10.38;;;6.00;;
83541;SDS011;73485;49.194;12.104;2023-11-18T09:33:23;9.32;;;6.15;;
83541;SDS011;73485;49.194;12.104;2023-11-18T09:35:55;13.30;;;5.57;;
83541;SDS011;73485;49.194;12.104;2023-11-18T09:38:26;12.45;;;6.55;;
83541;SDS011;73485;49.194;12.104;2023-11-18T09:40:57;9.75;;;4.60;;
83541;SDS011;73485;49.194;12.104;2023-11-18T09:43:28;9.63;;;5.13;;
83541;SDS011;73485;49.194;12.104;2023-11-18T09:48:29;8.95;;;4.72;;
83541;SDS011;73485;49.194;12.104;2023-11-18T09:51:06;6.20;;;3.80;;
83541;SDS011;73485;49.194;12.104;2023-11-18T09:53:35;6.95;;;4.45;;
83541;SDS011;73485;49.194;12.104;2023-11-18T09:56:10;7.95;;;4.72;;
83541;SDS011;73485;49.194;12.104;2023-11-18T09:58:45;8.65;;;4.63;;
83541;SDS011;73485;49.194;12.104;2023-11-18T10:01:19;7.40;;;4.65;;
83541;SDS011;73485;49.194;12.104;2023-11-18T10:03:48;9.57;;;5.35;;
83541;SDS011;73485;49.194;12.104;2023-11-18T10:06:18;8.18;;;5.10;;
83541;SDS011;73485;49.194;12.104;2023-11-18T10:08:47;8.45;;;5.55;;
83541;SDS011;73485;49.194;12.104;2023-11-18T10:11:21;9.70;;;4.95;;
83541;SDS011;73485;49.194;12.104;2023-11-18T10:13:49;9.23;;;4.88;;
83541;SDS011;73485;49.194;12.104;2023-11-18T10:16:17;7.70;;;4.93;;
83541;SDS011;73485;49.194;12.104;2023-11-18T10:18:45;8.77;;;4.63;;
83541;SDS011;73485;49.194;12.104;2023-11-18T10:21:20;12.30;;;5.82;;
83541;SDS011;73485;49.194;12.104;2023-11-18T10:24:08;8.57;;;4.45;;
83541;SDS011;73485;49.194;12.104;2023-11-18T10:26:43;7.88;;;4.72;;
83541;SDS011;73485;49.194;12.104;2023-11-18T10:29:13;10.88;;;5.07;;
83541;SDS011;73485;49.194;12.104;2023-11-18T10:31:45;7.88;;;4.63;;
83541;SDS011;73485;49.194;12.104;2023-11-18T10:34:15;8.15;;;4.95;;
83541;SDS011;73485;49.194;12.104;2023-11-18T10:36:58;9.13;;;5.55;;
83541;SDS011;73485;49.194;12.104;2023-11-18T10:39:31;10.23;;;5.53;;
83541;SDS011;73485;49.194;12.104;2023-11-18T10:42:03;9.15;;;5.10;;
83541;SDS011;73485;49.194;12.104;2023-11-18T10:44:31;8.95;;;4.97;;
83541;SDS011;73485;49.194;12.104;2023-11-18T10:46:59;9.88;;;5.43;;
83541;SDS011;73485;49.194;12.104;2023-11-18T10:49:28;10.48;;;5.07;;
83541;SDS011;73485;49.194;12.104;2023-11-18T10:52:03;8.73;;;4.82;;
83541;SDS011;73485;49.194;12.104;2023-11-18T10:54:35;12.98;;;4.95;;
83541;SDS011;73485;49.194;12.104;2023-11-18T10:57:05;7.05;;;4.43;;
83541;SDS011;73485;49.194;12.104;2023-11-18T10:59:35;8.77;;;4.22;;
83541;SDS011;73485;49.194;12.104;2023-11-18T11:02:17;8.18;;;4.53;;
83541;SDS011;73485;49.194;12.104;2023-11-18T11:04:46;10.05;;;4.72;;
83541;SDS011;73485;49.194;12.104;2023-11-18T11:07:15;7.68;;;4.60;;
83541;SDS011;73485;49.194;12.104;2023-11-18T11:09:45;7.90;;;4.22;;
83541;SDS011;73485;49.194;12.104;2023-11-18T11:12:14;10.60;;;3.75;;
83541;SDS011;73485;49.194;12.104;2023-11-18T11:14:46;7.55;;;4.30;;
83541;SDS011;73485;49.194;12.104;2023-11-18T11:17:19;6.60;;;3.35;;
83541;SDS011;73485;49.194;12.104;2023-11-18T11:19:53;10.45;;;3.72;;
83541;SDS011;73485;49.194;12.104;2023-11-18T11:22:24;7.63;;;3.60;;
83541;SDS011;73485;49.194;12.104;2023-11-18T11:24:54;6.43;;;3.85;;
83541;SDS011;73485;49.194;12.104;2023-11-18T11:27:41;6.28;;;3.53;;
83541;SDS011;73485;49.194;12.104;2023-11-18T11:30:16;6.78;;;3.42;;
83541;SDS011;73485;49.194;12.104;2023-11-18T11:32:50;8.85;;;4.47;;
83541;SDS011;73485;49.194;12.104;2023-11-18T11:35:22;9.30;;;4.28;;
83541;SDS011;73485;49.194;12.104;2023-11-18T11:37:52;7.25;;;4.32;;
83541;SDS011;73485;49.194;12.104;2023-11-18T11:42:51;8.13;;;4.30;;
83541;SDS011;73485;49.194;12.104;2023-11-18T11:45:22;6.90;;;4.18;;
83541;SDS011;73485;49.194;12.104;2023-11-18T11:47:54;10.13;;;4.28;;
83541;SDS011;73485;49.194;12.104;2023-11-18T11:50:45;7.97;;;4.28;;
83541;SDS011;73485;49.194;12.104;2023-11-18T11:53:21;7.85;;;4.30;;
83541;SDS011;73485;49.194;12.104;2023-11-18T11:55:52;9.70;;;5.53;;
83541;SDS011;73485;49.194;12.104;2023-11-18T11:58:27;9.15;;;4.30;;
83541;SDS011;73485;49.194;12.104;2023-11-18T12:00:58;6.82;;;3.70;;
83541;SDS011;73485;49.194;12.104;2023-11-18T12:03:27;6.80;;;3.65;;
83541;SDS011;73485;49.194;12.104;2023-11-18T12:06:02;11.73;;;4.00;;
83541;SDS011;73485;49.194;12.104;2023-11-18T12:08:38;12.60;;;4.70;;
83541;SDS011;73485;49.194;12.104;2023-11-18T12:11:11;14.15;;;5.13;;
83541;SDS011;73485;49.194;12.104;2023-11-18T12:13:40;9.80;;;4.65;;
83541;SDS011;73485;49.194;12.104;2023-11-18T12:19:32;8.35;;;4.68;;
83541;SDS011;73485;49.194;12.104;2023-11-18T12:22:03;7.15;;;4.32;;
83541;SDS011;73485;49.194;12.104;2023-11-18T12:24:39;8.50;;;4.32;;
83541;SDS011;73485;49.194;12.104;2023-11-18T12:27:08;10.65;;;5.85;;
83541;SDS011;73485;49.194;12.104;2023-11-18T12:29:42;10.07;;;4.97;;
83541;SDS011;73485;49.194;12.104;2023-11-18T12:32:10;11.57;;;6.05;;
83541;SDS011;73485;49.194;12.104;2023-11-18T12:37:36;10.60;;;5.53;;
83541;SDS011;73485;49.194;12.104;2023-11-18T12:40:23;9.10;;;5.50;;
83541;SDS011;73485;49.194;12.104;2023-11-18T12:43:10;9.52;;;5.63;;
83541;SDS011;73485;49.194;12.104;2023-11-18T12:45:53;9.52;;;5.32;;
83541;SDS011;73485;49.194;12.104;2023-11-18T12:48:46;11.98;;;5.30;;
83541;SDS011;73485;49.194;12.104;2023-11-18T12:51:17;10.23;;;6.50;;
83541;SDS011;73485;49.194;12.104;2023-11-18T12:53:48;12.45;;;7.18;;
83541;SDS011;73485;49.194;12.104;2023-11-18T12:56:19;9.38;;;5.28;;
83541;SDS011;73485;49.194;12.104;2023-11-18T12:58:49;10.82;;;5.63;;
83541;SDS011;73485;49.194;12.104;2023-11-18T13:01:19;9.80;;;5.50;;
83541;SDS011;73485;49.194;12.104;2023-11-18T13:06:15;9.38;;;5.28;;
83541;SDS011;73485;49.194;12.104;2023-11-18T13:08:43;9.50;;;6.15;;
83541;SDS011;73485;49.194;12.104;2023-11-18T13:11:12;10.43;;;6.50;;
83541;SDS011;73485;49.194;12.104;2023-11-18T13:13:42;13.20;;;6.22;;
83541;SDS011;73485;49.194;12.104;2023-11-18T13:16:10;12.45;;;5.22;;
83541;SDS011;73485;49.194;12.104;2023-11-18T13:18:42;13.68;;;6.15;;
83541;SDS011;73485;49.194;12.104;2023-11-18T13:21:14;9.80;;;5.80;;
83541;SDS011;73485;49.194;12.104;2023-11-18T13:23:44;15.65;;;7.93;;
83541;SDS011;73485;49.194;12.104;2023-11-18T13:26:13;12.32;;;6.32;;
83541;SDS011;73485;49.194;12.104;2023-11-18T13:28:41;10.65;;;6.82;;
83541;SDS011;73485;49.194;12.104;2023-11-18T13:31:09;11.23;;;6.45;;
83541;SDS011;73485;49.194;12.104;2023-11-18T13:33:38;11.77;;;6.32;;
83541;SDS011;73485;49.194;12.104;2023-11-18T13:36:08;12.82;;;6.05;;
83541;SDS011;73485;49.194;12.104;2023-11-18T13:38:36;9.27;;;5.38;;
83541;SDS011;73485;49.194;12.104;2023-11-18T13:41:04;12.00;;;5.93;;
83541;SDS011;73485;49.194;12.104;2023-11-18T13:43:41;9.02;;;5.82;;
83541;SDS011;73485;49.194;12.104;2023-11-18T13:46:10;10.00;;;5.32;;
83541;SDS011;73485;49.194;12.104;2023-11-18T13:51:09;20.95;;;8.30;;
83541;SDS011;73485;49.194;12.104;2023-11-18T13:53:40;10.38;;;5.93;;
83541;SDS011;73485;49.194;12.104;2023-11-18T13:56:09;13.70;;;7.35;;
83541;SDS011;73485;49.194;12.104;2023-11-18T13:58:38;8.90;;;5.07;;
83541;SDS011;73485;49.194;12.104;2023-11-18T14:01:06;9.32;;;5.90;;
83541;SDS011;73485;49.194;12.104;2023-11-18T14:03:35;8.75;;;5.03;;
83541;SDS011;73485;49.194;12.104;2023-11-18T14:06:05;10.93;;;5.88;;
83541;SDS011;73485;49.194;12.104;2023-11-18T14:08:38;13.80;;;6.32;;
83541;SDS011;73485;49.194;12.104;2023-11-18T14:11:05;11.52;;;6.13;;
83541;SDS011;73485;49.194;12.104;2023-11-18T14:13:42;13.02;;;7.22;;
83541;SDS011;73485;49.194;12.104;2023-11-18T14:16:10;10.68;;;6.05;;
83541;SDS011;73485;49.194;12.104;2023-11-18T14:18:39;9.57;;;5.60;;
83541;SDS011;73485;49.194;12.104;2023-11-18T14:21:08;13.48;;;6.40;;
83541;SDS011;73485;49.194;12.104;2023-11-18T14:23:37;12.48;;;5.65;;
83541;SDS011;73485;49.194;12.104;2023-11-18T14:26:04;10.18;;;5.72;;
83541;SDS011;73485;49.194;12.104;2023-11-18T14:28:33;9.50;;;5.35;;
83541;SDS011;73485;49.194;12.104;2023-11-18T14:31:01;11.82;;;7.25;;
83541;SDS011;73485;49.194;12.104;2023-11-18T14:33:30;10.52;;;5.60;;
83541;SDS011;73485;49.194;12.104;2023-11-18T14:35:59;11.98;;;6.15;;
83541;SDS011;73485;49.194;12.104;2023-11-18T14:38:28;11.88;;;5.97;;
83541;SDS011;73485;49.194;12.104;2023-11-18T14:40:58;14.25;;;5.82;;
83541;SDS011;73485;49.194;12.104;2023-11-18T14:43:25;8.70;;;5.57;;
83541;SDS011;73485;49.194;12.104;2023-11-18T14:45:54;10.35;;;4.97;;
83541;SDS011;73485;49.194;12.104;2023-11-18T14:48:22;7.82;;;4.88;;
83541;SDS011;73485;49.194;12.104;2023-11-18T14:50:49;8.07;;;4.82;;
83541;SDS011;73485;49.194;12.104;2023-11-18T14:53:17;12.77;;;6.45;;
83541;SDS011;73485;49.194;12.104;2023-11-18T14:55:45;10.82;;;5.47;;
83541;SDS011;73485;49.194;12.104;2023-11-18T14:58:14;12.00;;;6.97;;
83541;SDS011;73485;49.194;12.104;2023-11-18T15:00:42;11.25;;;5.80;;
83541;SDS011;73485;49.194;12.104;2023-11-18T15:03:09;9.98;;;5.15;;
83541;SDS011;73485;49.194;12.104;2023-11-18T15:05:37;7.95;;;4.32;;
83541;SDS011;73485;49.194;12.104;2023-11-18T15:08:05;9.45;;;5.68;;
83541;SDS011;73485;49.194;12.104;2023-11-18T15:10:36;11.18;;;5.80;;
83541;SDS011;73485;49.194;12.104;2023-11-18T15:15:34;9.25;;;5.03;;